createdAt,value
2019-03-31T00:04:27.303Z,113.95
2019-03-31T00:09:31.474Z,104.67
2019-03-31T00:14:35.274Z,101.55
2019-03-31T00:19:39.301Z,106.63
2019-03-31T00:24:43.153Z,109.32
2019-03-31T00:29:46.972Z,104.85
2019-03-31T00:34:50.801Z,107.83
2019-03-31T00:39:54.600Z,110.92
2019-03-31T00:44:58.502Z,116.47
2019-03-31T00:50:02.385Z,103.62
2019-03-31T00:55:06.183Z,109.20
2019-03-31T01:00:13.150Z,99.75
2019-03-31T01:05:17.195Z,115.20
2019-03-31T01:10:21.325Z,121.87
2019-03-31T01:15:25.901Z,94.83
2019-03-31T01:20:29.878Z,114.82
2019-03-31T01:25:34.112Z,113.62
2019-03-31T01:30:38.018Z,159.00
2019-03-31T01:35:41.790Z,113.55
2019-03-31T01:40:46.252Z,133.40
2019-03-31T01:45:50.356Z,121.77
2019-03-31T01:50:54.289Z,121.10
2019-03-31T01:55:58.100Z,93.67
2019-03-31T02:01:04.085Z,100.70
2019-03-31T02:06:08.249Z,108.00
2019-03-31T02:11:12.083Z,108.45
2019-03-31T02:16:16.195Z,101.17
2019-03-31T02:21:20.134Z,110.67
2019-03-31T02:26:23.864Z,103.58
2019-03-31T02:31:28.260Z,119.33
2019-03-31T02:36:32.021Z,121.33
2019-03-31T02:41:35.990Z,113.25
2019-03-31T02:46:39.922Z,116.67
2019-03-31T02:51:43.670Z,110.03
2019-03-31T02:56:48.850Z,109.45
2019-03-31T03:01:54.624Z,112.10
2019-03-31T03:07:01.770Z,109.37
2019-03-31T03:12:09.146Z,97.43
2019-03-31T03:17:12.971Z,100.87
2019-03-31T03:22:17.113Z,101.60
2019-03-31T03:27:21.045Z,107.67
2019-03-31T03:32:25.042Z,99.42
2019-03-31T03:37:28.930Z,117.42
2019-03-31T03:42:32.911Z,102.10
2019-03-31T03:47:36.722Z,96.35
2019-03-31T03:52:40.754Z,96.27
2019-03-31T03:57:44.744Z,91.72
2019-03-31T04:02:48.558Z,101.42
2019-03-31T04:07:52.387Z,91.45
2019-03-31T04:12:56.543Z,88.07
2019-03-31T04:18:00.349Z,93.07
2019-03-31T04:23:04.149Z,99.65
2019-03-31T04:28:07.971Z,90.30
2019-03-31T04:33:11.912Z,99.20
2019-03-31T04:38:15.762Z,106.78
2019-03-31T04:43:19.797Z,101.25
2019-03-31T04:48:23.847Z,91.12
2019-03-31T04:53:27.584Z,98.15
2019-03-31T04:58:31.608Z,88.45
2019-03-31T05:03:35.390Z,108.50
2019-03-31T05:08:39.469Z,108.42
2019-03-31T05:13:43.270Z,106.17
2019-03-31T05:18:47.145Z,102.30
2019-03-31T05:23:51.251Z,96.12
2019-03-31T05:28:55.529Z,108.67
2019-03-31T05:33:59.499Z,91.32
2019-03-31T05:39:05.611Z,97.37
2019-03-31T05:44:09.403Z,108.27
2019-03-31T05:49:13.531Z,126.10
2019-03-31T05:54:17.387Z,125.42
2019-03-31T05:59:21.286Z,116.90
2019-03-31T06:04:32.975Z,118.30
2019-03-31T06:09:31.257Z,112.55
2019-03-31T06:14:35.113Z,102.15
2019-03-31T06:19:39.359Z,97.92
2019-03-31T06:24:43.145Z,107.47
2019-03-31T06:29:46.990Z,97.30
2019-03-31T06:34:50.764Z,104.35
2019-03-31T06:39:54.762Z,96.05
2019-03-31T06:44:59.201Z,99.95
2019-03-31T06:50:03.863Z,99.35
2019-03-31T06:55:08.113Z,105.67
2019-03-31T07:00:12.535Z,94.67
2019-03-31T07:05:16.327Z,88.65
2019-03-31T07:10:20.522Z,89.70
2019-03-31T07:15:24.395Z,84.62
2019-03-31T07:20:28.350Z,76.95
2019-03-31T07:25:32.326Z,75.92
2019-03-31T07:30:36.298Z,80.60
2019-03-31T07:35:40.119Z,66.92
2019-03-31T07:40:44.195Z,62.58
2019-03-31T07:45:48.099Z,70.67
2019-03-31T07:50:51.883Z,56.77
2019-03-31T07:55:55.787Z,52.13
2019-03-31T08:00:59.558Z,54.45
2019-03-31T08:06:03.396Z,44.90
2019-03-31T08:11:07.216Z,44.95
2019-03-31T08:16:11.087Z,46.65
2019-03-31T08:21:14.915Z,45.38
2019-03-31T08:26:18.805Z,51.23
2019-03-31T08:31:22.698Z,48.13
2019-03-31T08:36:26.587Z,46.63
2019-03-31T08:41:30.580Z,46.50
2019-03-31T08:46:34.347Z,39.42
2019-03-31T08:51:38.194Z,38.98
2019-03-31T08:56:41.963Z,39.53
2019-03-31T09:01:45.791Z,33.45
2019-03-31T09:06:49.686Z,34.55
2019-03-31T09:11:53.530Z,32.55
2019-03-31T09:16:57.365Z,44.95
2019-03-31T09:22:01.574Z,39.63
2019-03-31T09:27:05.429Z,40.88
2019-03-31T09:32:09.294Z,33.13
2019-03-31T09:37:13.090Z,36.58
2019-03-31T09:42:16.872Z,37.63
2019-03-31T09:47:20.733Z,30.95
2019-03-31T09:52:25.256Z,28.05
2019-03-31T09:57:29.547Z,34.03
2019-03-31T10:02:33.803Z,35.65
2019-03-31T10:07:38.442Z,31.60
2019-03-31T10:12:42.752Z,31.62
2019-03-31T10:17:46.902Z,27.93
2019-03-31T10:22:50.737Z,27.13
2019-03-31T10:27:54.511Z,29.23
2019-03-31T10:32:58.664Z,26.23
2019-03-31T10:38:03.197Z,25.05
2019-03-31T10:43:07.319Z,21.25
2019-03-31T10:48:20.164Z,22.07
2019-03-31T10:53:16.959Z,24.07
2019-03-31T10:58:21.146Z,22.87
2019-03-31T11:03:25.075Z,15.32
2019-03-31T11:08:28.875Z,12.73
2019-03-31T11:13:32.668Z,13.20
2019-03-31T11:18:36.494Z,7.58
2019-03-31T11:23:40.313Z,11.18
2019-03-31T11:28:44.099Z,13.48
2019-03-31T11:33:47.980Z,12.33
2019-03-31T11:38:51.795Z,10.72
2019-03-31T11:43:55.785Z,13.53
2019-03-31T11:48:59.698Z,11.35
2019-03-31T11:54:03.475Z,13.70
2019-03-31T11:59:07.414Z,14.18
2019-03-31T12:04:11.205Z,17.85
2019-03-31T12:09:15.086Z,16.90
2019-03-31T12:14:19.115Z,18.42
2019-03-31T12:19:23.001Z,16.10
2019-03-31T12:24:27.345Z,14.38
2019-03-31T12:29:31.301Z,13.32
2019-03-31T12:34:35.105Z,15.38
2019-03-31T12:39:39.188Z,13.05
2019-03-31T12:44:42.986Z,13.10
2019-03-31T12:49:46.969Z,11.93
2019-03-31T12:54:50.825Z,15.45
2019-03-31T12:59:54.633Z,12.13
2019-03-31T13:04:58.582Z,10.90
2019-03-31T13:10:02.871Z,13.75
2019-03-31T13:15:06.846Z,13.03
2019-03-31T13:20:10.857Z,14.78
2019-03-31T13:25:14.862Z,15.35
2019-03-31T13:30:21.905Z,15.75
2019-03-31T13:35:25.193Z,13.43
2019-03-31T13:40:29.027Z,14.28
2019-03-31T13:45:32.799Z,13.80
2019-03-31T13:50:36.600Z,14.87
2019-03-31T13:55:40.481Z,15.78
2019-03-31T14:00:47.380Z,16.82
2019-03-31T14:05:51.502Z,17.05
2019-03-31T14:10:55.464Z,17.52
2019-03-31T14:15:59.642Z,13.93
2019-03-31T14:21:03.795Z,17.20
2019-03-31T14:26:07.763Z,18.50
2019-03-31T14:31:11.755Z,12.23
2019-03-31T14:36:15.831Z,15.98
2019-03-31T14:41:19.562Z,16.48
2019-03-31T14:46:23.665Z,12.40
2019-03-31T14:51:27.721Z,27.13
2019-03-31T14:56:31.591Z,10.65
2019-03-31T15:01:35.463Z,11.35
2019-03-31T15:06:39.577Z,8.90
2019-03-31T15:11:43.393Z,8.78
2019-03-31T15:16:48.591Z,10.88
2019-03-31T15:21:52.892Z,9.13
2019-03-31T15:26:56.937Z,14.45
2019-03-31T15:32:00.863Z,10.95
2019-03-31T15:37:06.031Z,18.48
2019-03-31T15:42:10.104Z,14.47
2019-03-31T15:47:14.093Z,12.47
2019-03-31T15:52:18.432Z,11.88
2019-03-31T15:57:22.241Z,9.20
2019-03-31T16:02:27.299Z,12.82
2019-03-31T16:07:31.391Z,10.65
2019-03-31T16:12:34.633Z,11.00
2019-03-31T16:17:37.695Z,13.40
2019-03-31T16:22:40.663Z,15.38
2019-03-31T16:27:43.992Z,11.08
2019-03-31T16:32:47.402Z,15.10
2019-03-31T16:37:50.407Z,16.40
2019-03-31T16:42:53.396Z,16.27
2019-03-31T16:47:56.362Z,16.85
2019-03-31T16:52:59.907Z,18.93
2019-03-31T16:58:02.957Z,16.80
2019-03-31T17:03:06.047Z,23.10
2019-03-31T17:08:09.097Z,18.87
2019-03-31T17:13:12.260Z,20.80
2019-03-31T17:18:15.850Z,19.67
2019-03-31T17:23:19.082Z,20.70
2019-03-31T17:28:22.217Z,20.05
2019-03-31T17:33:25.503Z,22.17
2019-03-31T17:38:28.584Z,26.10
2019-03-31T17:43:32.025Z,26.90
2019-03-31T17:48:35.851Z,26.25
2019-03-31T17:53:39.062Z,29.75
2019-03-31T17:58:42.257Z,25.97
2019-03-31T18:03:45.389Z,31.17
2019-03-31T18:08:48.831Z,24.52
2019-03-31T18:13:52.089Z,27.70
2019-03-31T18:18:55.340Z,30.23
2019-03-31T18:23:58.823Z,26.25
2019-03-31T18:29:01.906Z,29.12
2019-03-31T18:34:05.347Z,30.08
2019-03-31T18:39:08.704Z,30.00
2019-03-31T18:44:11.969Z,33.83
2019-03-31T18:49:15.162Z,31.97
2019-03-31T18:54:49.891Z,34.25
2019-03-31T19:00:21.408Z,37.87
2019-03-31T19:05:36.141Z,23.60
2019-03-31T19:10:57.486Z,25.00
2019-03-31T19:16:15.754Z,21.23
2019-03-31T19:21:44.582Z,20.95
2019-03-31T19:27:14.048Z,25.62
2019-03-31T19:32:39.594Z,23.47
2019-03-31T19:37:50.997Z,18.90
2019-03-31T19:43:16.849Z,25.03
2019-03-31T19:48:39.500Z,21.05
2019-03-31T19:54:00.988Z,26.57
2019-03-31T19:59:33.011Z,28.80
2019-03-31T20:04:45.880Z,21.93
2019-03-31T20:10:04.812Z,25.55
2019-03-31T20:15:21.848Z,29.07
2019-03-31T20:20:34.832Z,22.87
2019-03-31T20:25:56.247Z,25.95
2019-03-31T20:31:24.493Z,24.77
2019-03-31T20:36:45.660Z,24.35
2019-03-31T20:41:59.978Z,22.30
2019-03-31T20:47:03.025Z,28.85
2019-03-31T20:52:06.000Z,23.12
2019-03-31T20:57:09.043Z,27.02
2019-03-31T21:02:12.026Z,27.62
2019-03-31T21:07:15.061Z,26.23
2019-03-31T21:12:18.269Z,25.35
2019-03-31T21:17:21.356Z,20.05
2019-03-31T21:22:24.333Z,21.73
2019-03-31T21:27:27.475Z,22.37
2019-03-31T21:32:30.451Z,17.23
2019-03-31T21:37:33.440Z,17.50
2019-03-31T21:42:36.429Z,18.45
2019-03-31T21:47:39.432Z,22.62
2019-03-31T21:52:42.690Z,21.90
2019-03-31T21:57:45.671Z,20.92
2019-03-31T22:02:48.651Z,18.27
2019-03-31T22:07:51.652Z,18.60
2019-03-31T22:12:54.599Z,20.87
2019-03-31T22:17:57.706Z,17.87
2019-03-31T22:23:00.691Z,17.07
2019-03-31T22:28:04.207Z,15.03
2019-03-31T22:33:07.526Z,19.25
2019-03-31T22:38:10.576Z,20.35
2019-03-31T22:43:13.603Z,16.75
2019-03-31T22:48:16.828Z,23.35
2019-03-31T22:53:19.792Z,17.25
2019-03-31T22:58:23.258Z,17.77
2019-03-31T23:03:26.319Z,15.80
2019-03-31T23:08:29.278Z,13.35
2019-03-31T23:13:32.394Z,14.93
2019-03-31T23:18:35.386Z,12.15
2019-03-31T23:23:38.449Z,13.85
2019-03-31T23:28:47.360Z,15.68
2019-03-31T23:33:50.465Z,10.88
2019-03-31T23:38:53.512Z,13.50
2019-03-31T23:43:56.535Z,11.18
2019-03-31T23:48:59.635Z,11.55
2019-03-31T23:54:02.606Z,14.55
2019-03-31T23:59:06.196Z,14.28
